createdAt,value
2019-01-16T00:00:43.263Z,6.70
2019-01-16T00:03:28.052Z,6.70
2019-01-16T00:06:01.265Z,6.70
2019-01-16T00:08:47.283Z,6.70
2019-01-16T00:11:32.341Z,6.80
2019-01-16T00:14:05.507Z,6.80
2019-01-16T00:16:35.694Z,6.80
2019-01-16T00:19:14.945Z,6.80
2019-01-16T00:21:45.082Z,6.80
2019-01-16T00:24:24.082Z,6.80
2019-01-16T00:27:13.451Z,6.80
2019-01-16T00:29:59.465Z,6.80
2019-01-16T00:32:29.640Z,6.80
2019-01-16T00:35:15.643Z,6.80
2019-01-16T00:37:45.837Z,6.80
2019-01-16T00:40:25.226Z,6.80
2019-01-16T00:43:07.489Z,6.80
2019-01-16T00:45:53.690Z,6.80
2019-01-16T00:48:29.737Z,6.70
2019-01-16T00:50:59.950Z,6.70
2019-01-16T00:53:39.285Z,6.70
2019-01-16T00:56:24.342Z,6.70
2019-01-16T00:58:54.552Z,6.70
2019-01-16T01:01:40.594Z,6.70
2019-01-16T01:04:10.777Z,6.70
2019-01-16T01:06:43.662Z,6.70
2019-01-16T01:09:13.846Z,6.70
2019-01-16T01:11:44.053Z,6.70
2019-01-16T01:14:17.006Z,6.60
2019-01-16T01:16:47.210Z,6.70
2019-01-16T01:19:22.940Z,6.70
2019-01-16T01:22:09.561Z,6.70
2019-01-16T01:24:39.738Z,6.70
2019-01-16T01:27:09.955Z,6.70
2019-01-16T01:29:43.186Z,6.60
2019-01-16T01:32:16.351Z,6.60
2019-01-16T01:34:58.618Z,6.60
2019-01-16T01:37:43.677Z,6.60
2019-01-16T01:40:16.576Z,6.60
2019-01-16T01:42:46.801Z,6.60
2019-01-16T01:45:20.078Z,6.60
2019-01-16T01:47:50.290Z,6.60
2019-01-16T01:50:26.441Z,6.60
2019-01-16T01:53:02.346Z,6.60
2019-01-16T01:55:47.594Z,6.60
2019-01-16T01:58:32.966Z,6.60
2019-01-16T02:01:18.919Z,6.60
2019-01-16T02:03:51.617Z,6.60
2019-01-16T02:06:24.715Z,6.60
2019-01-16T02:08:54.916Z,6.50
2019-01-16T02:11:27.693Z,6.50
2019-01-16T02:14:06.868Z,6.50
2019-01-16T02:16:43.033Z,6.50
2019-01-16T02:19:13.243Z,6.50
2019-01-16T02:21:43.426Z,6.50
2019-01-16T02:24:29.674Z,6.50
2019-01-16T02:27:02.892Z,6.50
2019-01-16T02:29:49.087Z,6.50
2019-01-16T02:32:19.298Z,6.50
2019-01-16T02:35:01.243Z,6.50
2019-01-16T02:37:40.382Z,6.50
2019-01-16T02:40:14.922Z,6.50
2019-01-16T02:42:50.839Z,6.50
2019-01-16T02:45:39.135Z,6.50
2019-01-16T02:48:18.122Z,6.50
2019-01-16T02:50:51.051Z,6.50
2019-01-16T02:53:23.955Z,6.50
2019-01-16T02:56:03.143Z,6.50
2019-01-16T02:58:45.312Z,6.60
2019-01-16T03:01:27.255Z,6.60
2019-01-16T03:03:57.464Z,6.60
2019-01-16T03:06:27.647Z,6.60
2019-01-16T03:09:12.823Z,6.60
2019-01-16T03:11:45.922Z,6.60
2019-01-16T03:14:30.904Z,6.60
2019-01-16T03:17:06.574Z,6.60
2019-01-16T03:19:39.267Z,6.60
2019-01-16T03:22:25.835Z,6.60
2019-01-16T03:24:59.000Z,6.60
2019-01-16T03:27:41.046Z,6.60
2019-01-16T03:30:12.295Z,6.60
2019-01-16T03:32:42.797Z,6.60
2019-01-16T03:35:15.536Z,6.60
2019-01-16T03:38:00.579Z,6.60
2019-01-16T03:40:30.808Z,6.60
2019-01-16T03:43:09.871Z,6.60
2019-01-16T03:45:45.773Z,6.60
2019-01-16T03:48:31.042Z,6.70
2019-01-16T03:51:17.634Z,6.70
2019-01-16T03:53:59.862Z,6.70
2019-01-16T03:56:32.742Z,6.70
2019-01-16T03:59:18.931Z,6.70
2019-01-16T04:01:57.649Z,6.70
2019-01-16T04:04:33.563Z,6.70
2019-01-16T04:07:06.511Z,6.70
2019-01-16T04:09:52.794Z,6.70
2019-01-16T04:12:38.066Z,6.70
2019-01-16T04:15:21.022Z,6.70
2019-01-16T04:18:07.470Z,6.70
2019-01-16T04:20:52.558Z,6.70
2019-01-16T04:23:28.799Z,6.70
2019-01-16T04:26:14.115Z,6.70
2019-01-16T04:28:47.265Z,6.70
2019-01-16T04:31:17.512Z,6.70
2019-01-16T04:33:50.468Z,6.70
2019-01-16T04:36:29.767Z,6.70
2019-01-16T04:39:05.724Z,6.70
2019-01-16T04:41:38.780Z,6.70
2019-01-16T04:44:26.833Z,6.70
2019-01-16T04:47:02.519Z,6.70
2019-01-16T04:49:38.439Z,6.70
2019-01-16T04:52:24.498Z,6.70
2019-01-16T04:55:06.738Z,6.70
2019-01-16T04:57:42.622Z,6.70
2019-01-16T05:00:14.764Z,6.70
2019-01-16T05:02:47.471Z,6.70
2019-01-16T05:05:23.507Z,6.70
2019-01-16T05:08:02.522Z,6.70
2019-01-16T05:10:35.450Z,6.70
2019-01-16T05:13:14.657Z,6.60
2019-01-16T05:15:44.866Z,6.70
2019-01-16T05:18:15.063Z,6.70
2019-01-16T05:20:45.290Z,6.70
2019-01-16T05:23:15.479Z,6.70
2019-01-16T05:25:48.643Z,6.70
2019-01-16T05:28:27.784Z,6.70
2019-01-16T05:31:00.926Z,6.70
2019-01-16T05:33:31.110Z,6.70
2019-01-16T05:36:16.161Z,6.70
2019-01-16T05:38:57.875Z,6.70
2019-01-16T05:41:30.737Z,6.80
2019-01-16T05:44:00.847Z,6.80
2019-01-16T05:46:48.926Z,6.80
2019-01-16T05:49:19.117Z,6.80
2019-01-16T05:52:07.504Z,6.80
2019-01-16T05:54:37.794Z,6.80
2019-01-16T05:57:24.263Z,6.80
2019-01-16T06:00:10.278Z,6.80
2019-01-16T06:02:52.322Z,6.80
2019-01-16T06:05:40.502Z,6.80
2019-01-16T06:08:16.407Z,6.80
2019-01-16T06:10:49.215Z,6.80
2019-01-16T06:13:35.526Z,6.80
2019-01-16T06:16:05.804Z,6.80
2019-01-16T06:18:52.210Z,6.80
2019-01-16T06:21:38.426Z,6.80
2019-01-16T06:24:08.614Z,6.80
2019-01-16T06:26:53.610Z,6.80
2019-01-16T06:29:23.797Z,6.90
2019-01-16T06:32:10.267Z,6.80
2019-01-16T06:34:56.482Z,6.90
2019-01-16T06:37:42.693Z,6.80
2019-01-16T06:40:21.717Z,6.90
2019-01-16T06:42:54.379Z,6.80
2019-01-16T06:45:36.330Z,6.90
2019-01-16T06:48:06.894Z,6.80
2019-01-16T06:50:37.090Z,6.80
2019-01-16T06:53:07.290Z,6.80
2019-01-16T06:55:38.523Z,6.80
2019-01-16T06:58:17.497Z,6.80
2019-01-16T07:00:50.325Z,6.80
2019-01-16T07:03:23.178Z,6.90
2019-01-16T07:06:11.258Z,6.80
2019-01-16T07:08:59.290Z,6.90
2019-01-16T07:11:35.178Z,6.80
2019-01-16T07:14:23.054Z,6.80
2019-01-16T07:16:55.970Z,6.80
2019-01-16T07:19:26.159Z,6.80
2019-01-16T07:21:56.361Z,6.80
2019-01-16T07:24:32.055Z,6.80
2019-01-16T07:27:04.926Z,6.80
2019-01-16T07:29:41.154Z,6.80
2019-01-16T07:32:20.423Z,6.70
2019-01-16T07:34:53.566Z,6.70
2019-01-16T07:37:23.848Z,6.70
2019-01-16T07:39:54.026Z,6.70
2019-01-16T07:42:46.774Z,6.70
2019-01-16T07:45:15.034Z,6.60
2019-01-16T07:47:45.231Z,6.60
2019-01-16T07:50:17.489Z,6.60
2019-01-16T07:52:55.705Z,6.60
2019-01-16T07:55:28.580Z,6.60
2019-01-16T07:58:14.874Z,6.60
2019-01-16T08:00:45.123Z,6.60
2019-01-16T08:03:20.761Z,6.60
2019-01-16T08:05:53.874Z,6.60
2019-01-16T08:08:24.086Z,6.60
2019-01-16T08:10:56.686Z,6.60
2019-01-16T08:13:26.906Z,6.50
2019-01-16T08:15:57.086Z,6.60
2019-01-16T08:18:45.331Z,6.60
2019-01-16T08:21:31.526Z,6.50
2019-01-16T08:24:07.767Z,6.50
2019-01-16T08:26:37.950Z,6.50
2019-01-16T08:29:19.939Z,6.50
2019-01-16T08:32:06.440Z,6.50
2019-01-16T08:34:39.354Z,6.50
2019-01-16T08:37:25.794Z,6.50
2019-01-16T08:40:07.762Z,6.50
2019-01-16T08:42:53.904Z,6.50
2019-01-16T08:45:24.247Z,6.50
2019-01-16T08:47:54.436Z,6.50
2019-01-16T08:50:33.301Z,6.50
2019-01-16T08:53:19.542Z,6.50
2019-01-16T08:55:58.434Z,6.50
2019-01-16T08:58:37.573Z,6.50
2019-01-16T09:01:10.462Z,6.50
2019-01-16T09:03:52.503Z,6.50
2019-01-16T09:06:22.763Z,6.50
2019-01-16T09:09:04.764Z,6.50
2019-01-16T09:11:43.519Z,6.50
2019-01-16T09:14:31.575Z,6.50
2019-01-16T09:17:17.759Z,6.50
2019-01-16T09:19:50.624Z,6.50
2019-01-16T09:22:38.668Z,6.40
2019-01-16T09:25:09.011Z,6.40
2019-01-16T09:27:41.907Z,6.40
2019-01-16T09:30:17.307Z,6.40
2019-01-16T09:32:53.275Z,6.40
2019-01-16T09:35:26.199Z,6.40
2019-01-16T09:38:05.252Z,6.40
2019-01-16T09:40:35.458Z,6.40
2019-01-16T09:43:11.721Z,6.50
2019-01-16T09:45:47.734Z,6.50
2019-01-16T09:48:20.734Z,6.50
2019-01-16T09:50:53.870Z,6.50
2019-01-16T09:53:24.054Z,6.50
2019-01-16T09:56:12.094Z,6.50
2019-01-16T09:58:45.098Z,6.60
2019-01-16T10:01:33.213Z,6.60
2019-01-16T10:04:19.603Z,6.70
2019-01-16T10:06:58.791Z,6.70
2019-01-16T10:09:37.754Z,6.70
2019-01-16T10:12:10.675Z,6.80
2019-01-16T10:14:46.888Z,6.80
2019-01-16T10:17:19.774Z,6.80
2019-01-16T10:20:06.302Z,6.80
2019-01-16T10:22:42.239Z,6.80
2019-01-16T10:25:15.034Z,6.80
2019-01-16T10:27:47.940Z,6.80
2019-01-16T10:30:21.554Z,6.80
2019-01-16T10:33:07.805Z,6.80
2019-01-16T10:35:53.987Z,6.80
2019-01-16T10:38:40.484Z,6.90
2019-01-16T10:41:16.422Z,6.90
2019-01-16T10:43:46.597Z,6.90
2019-01-16T10:46:22.503Z,6.90
2019-01-16T10:48:55.175Z,6.90
2019-01-16T10:51:41.346Z,6.90
2019-01-16T10:54:11.521Z,6.90
2019-01-16T10:56:41.948Z,6.90
2019-01-16T10:59:15.166Z,6.90
2019-01-16T11:01:48.361Z,6.90
2019-01-16T11:04:20.975Z,6.90
2019-01-16T11:07:07.506Z,6.90
2019-01-16T11:09:37.691Z,6.90
2019-01-16T11:12:07.886Z,6.90
2019-01-16T11:14:41.089Z,6.90
2019-01-16T11:17:27.554Z,7.00
2019-01-16T11:20:09.842Z,7.00
2019-01-16T11:22:40.039Z,7.00
2019-01-16T11:25:28.775Z,6.90
2019-01-16T11:28:15.054Z,6.90
2019-01-16T11:30:56.979Z,6.90
2019-01-16T11:33:32.592Z,6.90
2019-01-16T11:36:18.738Z,6.90
2019-01-16T11:38:54.926Z,6.90
2019-01-16T11:41:27.829Z,6.90
2019-01-16T11:43:58.495Z,6.90
2019-01-16T11:46:28.791Z,6.90
2019-01-16T11:49:14.953Z,6.90
2019-01-16T11:52:01.410Z,6.90
2019-01-16T11:54:34.455Z,6.80
2019-01-16T11:57:04.668Z,6.80
2019-01-16T11:59:37.406Z,6.80
2019-01-16T12:02:13.066Z,6.70
2019-01-16T12:05:00.861Z,6.70
2019-01-16T12:07:36.730Z,6.70
2019-01-16T12:10:27.898Z,6.60
2019-01-16T12:13:00.538Z,6.70
2019-01-16T12:15:48.929Z,6.70
2019-01-16T12:18:28.130Z,6.70
2019-01-16T12:20:58.310Z,6.70
2019-01-16T12:23:28.514Z,6.60
2019-01-16T12:25:58.690Z,6.60
2019-01-16T12:28:28.900Z,6.60
2019-01-16T12:31:05.029Z,6.60
2019-01-16T12:33:51.272Z,6.60
2019-01-16T12:36:27.438Z,6.60
2019-01-16T12:38:57.633Z,6.70
2019-01-16T12:41:42.586Z,6.70
2019-01-16T12:44:28.680Z,6.70
2019-01-16T12:47:15.033Z,6.70
2019-01-16T12:50:01.491Z,6.60
2019-01-16T12:52:43.106Z,6.60
2019-01-16T12:55:13.389Z,6.50
2019-01-16T12:57:55.282Z,6.50
2019-01-16T13:00:43.695Z,6.50
2019-01-16T13:03:31.920Z,6.50
2019-01-16T13:06:04.913Z,6.40
2019-01-16T13:08:40.722Z,6.40
2019-01-16T13:11:16.842Z,6.40
2019-01-16T13:14:01.906Z,6.40
2019-01-16T13:16:48.102Z,6.40
2019-01-16T13:19:34.640Z,6.50
2019-01-16T13:22:04.894Z,6.50
2019-01-16T13:24:41.075Z,6.50
2019-01-16T13:27:23.341Z,6.50
2019-01-16T13:29:53.547Z,6.50
2019-01-16T13:32:38.528Z,6.50
2019-01-16T13:35:25.306Z,6.50
2019-01-16T13:38:01.399Z,6.50
2019-01-16T13:40:49.223Z,6.50
2019-01-16T13:43:19.406Z,6.40
2019-01-16T13:46:01.706Z,6.40
2019-01-16T13:48:31.891Z,6.40
2019-01-16T13:51:11.174Z,6.40
2019-01-16T13:53:55.874Z,6.40
2019-01-16T13:56:31.866Z,6.40
2019-01-16T13:59:02.045Z,6.40
2019-01-16T14:01:32.245Z,6.40
2019-01-16T14:04:05.418Z,6.40
2019-01-16T14:06:41.527Z,6.40
2019-01-16T14:09:28.362Z,6.40
2019-01-16T14:12:16.213Z,6.40
2019-01-16T14:14:55.503Z,6.40
2019-01-16T14:17:41.598Z,6.40
2019-01-16T14:20:31.852Z,6.40
2019-01-16T14:23:07.987Z,6.40
2019-01-16T14:25:50.411Z,6.40
2019-01-16T14:28:36.636Z,6.30
2019-01-16T14:31:23.142Z,6.30
2019-01-16T14:34:08.414Z,6.30
2019-01-16T14:36:56.471Z,6.30
2019-01-16T14:39:29.218Z,6.20
2019-01-16T14:41:59.494Z,6.20
2019-01-16T14:44:29.719Z,6.20
2019-01-16T14:47:16.196Z,6.20
2019-01-16T14:49:55.414Z,6.20
2019-01-16T14:52:25.612Z,6.20
2019-01-16T14:54:55.789Z,6.20
2019-01-16T14:57:32.049Z,6.20
2019-01-16T15:00:02.290Z,6.20
2019-01-16T15:02:38.195Z,6.10
2019-01-16T15:05:09.714Z,6.10
2019-01-16T15:07:45.599Z,6.10
2019-01-16T15:10:31.967Z,6.10
2019-01-16T15:13:04.807Z,6.10
2019-01-16T15:15:51.342Z,6.10
2019-01-16T15:18:21.533Z,6.10
2019-01-16T15:21:03.855Z,6.10
2019-01-16T15:23:34.038Z,6.10
2019-01-16T15:26:10.367Z,6.10
2019-01-16T15:28:40.542Z,6.10
2019-01-16T15:31:28.473Z,6.00
2019-01-16T15:33:58.653Z,6.00
2019-01-16T15:36:31.546Z,6.00
2019-01-16T15:39:07.698Z,6.00
2019-01-16T15:41:37.901Z,6.00
2019-01-16T15:44:24.327Z,6.00
2019-01-16T15:47:00.094Z,6.00
2019-01-16T15:49:39.192Z,6.00
2019-01-16T15:52:12.943Z,6.00
2019-01-16T15:54:41.302Z,6.00
2019-01-16T15:57:11.517Z,5.90
2019-01-16T15:59:44.578Z,5.90
2019-01-16T16:02:14.927Z,5.90
2019-01-16T16:05:00.239Z,5.90
2019-01-16T16:07:33.295Z,5.90
2019-01-16T16:10:03.484Z,5.90
2019-01-16T16:12:45.530Z,5.90
2019-01-16T16:15:15.856Z,5.90
2019-01-16T16:17:46.054Z,5.90
2019-01-16T16:20:22.076Z,5.80
2019-01-16T16:22:54.867Z,5.80
2019-01-16T16:25:27.766Z,5.80
2019-01-16T16:28:03.686Z,5.80
2019-01-16T16:30:50.172Z,5.70
2019-01-16T16:33:20.382Z,5.70
2019-01-16T16:36:05.662Z,5.70
2019-01-16T16:38:47.690Z,5.70
2019-01-16T16:41:20.750Z,5.70
2019-01-16T16:43:53.921Z,5.70
2019-01-16T16:46:24.166Z,5.70
2019-01-16T16:49:03.130Z,5.70
2019-01-16T16:51:33.315Z,5.70
2019-01-16T16:54:19.567Z,5.70
2019-01-16T16:56:49.750Z,5.60
2019-01-16T16:59:19.954Z,5.60
2019-01-16T17:02:05.018Z,5.60
2019-01-16T17:04:35.226Z,5.60
2019-01-16T17:07:10.971Z,5.60
2019-01-16T17:09:57.206Z,5.60
2019-01-16T17:12:33.167Z,5.60
2019-01-16T17:15:12.138Z,5.60
2019-01-16T17:17:48.233Z,5.60
2019-01-16T17:20:27.430Z,5.60
2019-01-16T17:23:13.846Z,5.60
2019-01-16T17:25:46.759Z,5.60
2019-01-16T17:28:16.939Z,5.60
2019-01-16T17:30:49.589Z,5.60
2019-01-16T17:33:31.643Z,5.50
2019-01-16T17:36:01.823Z,5.50
2019-01-16T17:38:32.148Z,5.50
2019-01-16T17:41:11.411Z,5.50
2019-01-16T17:43:57.899Z,5.50
2019-01-16T17:46:43.118Z,5.50
2019-01-16T17:49:16.031Z,5.50
2019-01-16T17:51:48.919Z,5.50
2019-01-16T17:54:21.837Z,5.60
2019-01-16T17:57:03.858Z,5.60
2019-01-16T17:59:39.778Z,5.60
2019-01-16T18:02:27.540Z,5.60
2019-01-16T18:05:13.574Z,5.60
2019-01-16T18:07:43.758Z,5.60
2019-01-16T18:10:14.202Z,5.60
2019-01-16T18:13:00.451Z,5.60
2019-01-16T18:15:48.766Z,5.60
2019-01-16T18:18:24.385Z,5.60
2019-01-16T18:20:54.594Z,5.60
2019-01-16T18:23:30.589Z,5.60
2019-01-16T18:26:03.821Z,5.60
2019-01-16T18:28:50.322Z,5.60
2019-01-16T18:31:23.315Z,5.60
2019-01-16T18:34:09.550Z,5.60
2019-01-16T18:36:54.847Z,5.60
2019-01-16T18:39:40.812Z,5.60
2019-01-16T18:42:11.011Z,5.60
2019-01-16T18:44:41.203Z,5.60
2019-01-16T18:47:14.183Z,5.60
2019-01-16T18:50:00.405Z,5.60
2019-01-16T18:52:42.538Z,5.60
2019-01-16T18:55:18.799Z,5.60
2019-01-16T18:58:05.146Z,5.60
2019-01-16T19:00:35.730Z,5.60
2019-01-16T19:03:17.982Z,5.60
2019-01-16T19:05:53.938Z,5.60
2019-01-16T19:08:24.760Z,5.60
2019-01-16T19:11:09.851Z,5.60
2019-01-16T19:13:52.119Z,5.60
2019-01-16T19:16:22.325Z,5.60
2019-01-16T19:18:52.502Z,5.60
2019-01-16T19:21:31.534Z,5.60
2019-01-16T19:24:18.058Z,5.60
2019-01-16T19:26:50.975Z,5.60
2019-01-16T19:29:23.842Z,5.60
2019-01-16T19:32:10.406Z,5.60
2019-01-16T19:34:40.768Z,5.60
2019-01-16T19:37:26.862Z,5.60
2019-01-16T19:39:59.811Z,5.60
2019-01-16T19:42:46.067Z,5.60
2019-01-16T19:45:18.957Z,5.60
2019-01-16T19:47:51.958Z,5.60
2019-01-16T19:50:22.510Z,5.60
2019-01-16T19:52:53.054Z,5.60
2019-01-16T19:55:39.667Z,5.60
2019-01-16T19:58:14.564Z,5.60
2019-01-16T20:00:44.860Z,5.60
2019-01-16T20:03:23.905Z,5.60
2019-01-16T20:05:54.078Z,5.60
2019-01-16T20:08:36.382Z,5.60
2019-01-16T20:11:21.582Z,5.60
2019-01-16T20:13:54.261Z,5.60
2019-01-16T20:16:24.511Z,5.60
2019-01-16T20:18:54.788Z,5.60
2019-01-16T20:21:33.690Z,5.60
2019-01-16T20:24:18.918Z,5.70
2019-01-16T20:27:01.995Z,5.60
2019-01-16T20:29:34.909Z,5.70
2019-01-16T20:32:05.180Z,5.70
2019-01-16T20:34:53.557Z,5.70
2019-01-16T20:37:23.714Z,5.70
2019-01-16T20:39:59.959Z,5.70
2019-01-16T20:42:33.239Z,5.70
2019-01-16T20:45:03.833Z,5.70
2019-01-16T20:47:37.026Z,5.70
2019-01-16T20:50:15.773Z,5.70
2019-01-16T20:52:46.079Z,5.70
2019-01-16T20:55:19.349Z,5.70
2019-01-16T20:57:52.881Z,5.70
2019-01-16T21:00:25.791Z,5.70
2019-01-16T21:02:59.087Z,5.70
2019-01-16T21:05:29.190Z,5.70
2019-01-16T21:08:16.140Z,5.70
2019-01-16T21:10:52.342Z,5.70
2019-01-16T21:13:34.606Z,5.70
2019-01-16T21:16:21.640Z,5.70
2019-01-16T21:19:06.860Z,5.70
2019-01-16T21:21:37.069Z,5.70
2019-01-16T21:24:23.347Z,5.70
2019-01-16T21:26:56.624Z,5.70
2019-01-16T21:29:29.591Z,5.70
2019-01-16T21:31:59.723Z,5.70
2019-01-16T21:34:35.662Z,5.70
2019-01-16T21:37:18.211Z,5.70
2019-01-16T21:39:57.122Z,5.70
2019-01-16T21:42:30.290Z,5.70
2019-01-16T21:45:06.463Z,5.70
2019-01-16T21:47:39.390Z,5.70
2019-01-16T21:50:17.883Z,5.70
2019-01-16T21:53:04.277Z,5.70
2019-01-16T21:55:37.526Z,5.70
2019-01-16T21:58:19.799Z,5.70
2019-01-16T22:00:52.726Z,5.70
2019-01-16T22:03:25.343Z,5.70
2019-01-16T22:06:01.533Z,5.70
2019-01-16T22:08:47.541Z,5.70
2019-01-16T22:11:32.582Z,5.70
2019-01-16T22:14:11.828Z,5.70
2019-01-16T22:16:58.300Z,5.70
2019-01-16T22:19:31.257Z,5.70
2019-01-16T22:22:04.330Z,5.70
2019-01-16T22:24:37.346Z,5.70
2019-01-16T22:27:07.518Z,5.70
2019-01-16T22:29:52.634Z,5.70
2019-01-16T22:32:25.683Z,5.70
2019-01-16T22:35:11.968Z,5.70
2019-01-16T22:37:44.992Z,5.70
2019-01-16T22:40:31.686Z,5.70
2019-01-16T22:43:17.957Z,5.70
2019-01-16T22:46:00.213Z,5.70
2019-01-16T22:48:33.169Z,5.70
2019-01-16T22:51:19.113Z,5.70
2019-01-16T22:53:58.010Z,5.80
2019-01-16T22:56:28.210Z,5.80
2019-01-16T22:59:04.395Z,5.80
2019-01-16T23:01:34.650Z,5.80
2019-01-16T23:04:16.987Z,5.80
2019-01-16T23:07:05.000Z,5.80
2019-01-16T23:09:44.121Z,5.80
2019-01-16T23:12:23.315Z,5.70
2019-01-16T23:14:53.510Z,5.70
2019-01-16T23:17:29.494Z,5.70
2019-01-16T23:20:02.399Z,5.70
2019-01-16T23:22:44.713Z,5.70
2019-01-16T23:25:14.994Z,5.70
2019-01-16T23:27:56.984Z,5.70
2019-01-16T23:30:27.245Z,5.70
2019-01-16T23:33:00.103Z,5.70
2019-01-16T23:35:30.301Z,5.70
2019-01-16T23:38:16.865Z,5.60
2019-01-16T23:40:47.061Z,5.60
2019-01-16T23:43:25.874Z,5.60
2019-01-16T23:45:56.084Z,5.60
2019-01-16T23:48:26.263Z,5.60
2019-01-16T23:51:08.541Z,5.50
2019-01-16T23:53:44.813Z,5.50
2019-01-16T23:56:20.806Z,5.50
2019-01-16T23:59:06.094Z,5.50
